createdAt,value
2022-10-27T00:01:23.444Z,1.90
2022-10-27T00:03:29.955Z,1.90
2022-10-27T00:05:36.380Z,1.20
2022-10-27T00:07:42.931Z,1.50
2022-10-27T00:09:49.062Z,2.20
2022-10-27T00:11:57.497Z,2.10
2022-10-27T00:14:03.850Z,1.60
2022-10-27T00:16:16.565Z,2.30
2022-10-27T00:18:23.606Z,2.60
2022-10-27T00:20:30.551Z,2.10
2022-10-27T00:22:36.521Z,2.50
2022-10-27T00:24:43.824Z,2.20
2022-10-27T00:26:50.290Z,2.80
2022-10-27T00:28:56.894Z,2.40
2022-10-27T00:31:12.481Z,2.50
2022-10-27T00:33:19.271Z,2.70
2022-10-27T00:35:25.473Z,2.60
2022-10-27T00:37:31.518Z,2.80
2022-10-27T00:39:37.863Z,2.90
2022-10-27T00:41:44.518Z,3.30
2022-10-27T00:43:51.189Z,3.00
2022-10-27T00:46:02.806Z,3.10
2022-10-27T00:48:09.132Z,3.60
2022-10-27T00:50:21.382Z,2.90
2022-10-27T00:52:59.684Z,3.40
2022-10-27T00:55:21.027Z,3.60
2022-10-27T00:57:28.653Z,3.50
2022-10-27T00:59:35.703Z,3.90
2022-10-27T01:01:43.158Z,3.90
2022-10-27T01:03:49.649Z,3.40
2022-10-27T01:05:58.432Z,4.00
2022-10-27T01:08:06.834Z,3.50
2022-10-27T01:10:15.987Z,3.30
2022-10-27T01:14:33.494Z,3.40
2022-10-27T01:17:11.083Z,3.50
2022-10-27T01:19:52.539Z,3.20
2022-10-27T01:22:30.438Z,3.20
2022-10-27T01:24:46.343Z,3.50
2022-10-27T01:27:07.024Z,3.30
2022-10-27T01:29:39.610Z,3.30
2022-10-27T01:32:12.533Z,3.40
2022-10-27T01:34:54.934Z,3.20
2022-10-27T01:37:27.247Z,4.00
2022-10-27T01:41:59.902Z,5.00
2022-10-27T01:44:12.807Z,4.40
2022-10-27T01:46:20.541Z,5.80
2022-10-27T01:48:26.973Z,6.30
2022-10-27T01:50:45.203Z,6.50
2022-10-27T01:53:03.835Z,6.20
2022-10-27T01:55:28.042Z,5.70
2022-10-27T01:58:18.800Z,6.20
2022-10-27T02:00:25.053Z,6.40
2022-10-27T02:02:49.859Z,6.50
2022-10-27T02:04:59.580Z,6.70
2022-10-27T02:07:15.383Z,7.20
2022-10-27T02:09:48.237Z,7.60
2022-10-27T02:11:57.510Z,8.20
2022-10-27T02:14:03.560Z,8.10
2022-10-27T02:16:32.490Z,8.80
2022-10-27T02:18:47.576Z,8.60
2022-10-27T02:20:59.045Z,9.50
2022-10-27T02:23:10.609Z,8.80
2022-10-27T02:25:17.931Z,9.50
2022-10-27T02:27:37.157Z,8.90
2022-10-27T02:29:49.617Z,8.80
2022-10-27T02:32:00.579Z,9.10
2022-10-27T02:34:07.973Z,9.90
2022-10-27T02:36:14.365Z,8.80
2022-10-27T02:38:20.862Z,8.50
2022-10-27T02:40:27.726Z,9.40
2022-10-27T02:42:33.968Z,9.50
2022-10-27T02:44:40.314Z,9.00
2022-10-27T02:46:48.493Z,7.90
2022-10-27T02:48:56.999Z,8.30
2022-10-27T02:51:03.705Z,8.40
2022-10-27T02:53:11.134Z,7.10
2022-10-27T02:55:17.588Z,7.30
2022-10-27T02:57:24.581Z,7.80
2022-10-27T02:59:30.905Z,7.80
2022-10-27T03:01:37.438Z,6.30
2022-10-27T03:03:44.074Z,7.30
2022-10-27T03:05:50.766Z,7.60
2022-10-27T03:07:57.408Z,7.80
2022-10-27T03:10:04.324Z,8.00
2022-10-27T03:12:10.847Z,7.20
2022-10-27T03:14:16.965Z,7.80
2022-10-27T03:16:23.572Z,7.10
2022-10-27T03:18:29.695Z,7.30
2022-10-27T03:20:36.045Z,6.00
2022-10-27T03:22:42.880Z,5.30
2022-10-27T03:24:48.925Z,7.10
2022-10-27T03:26:55.606Z,6.30
2022-10-27T03:29:02.595Z,5.80
2022-10-27T03:31:08.999Z,5.20
2022-10-27T03:33:15.309Z,5.60
2022-10-27T03:35:22.101Z,5.40
2022-10-27T03:37:28.567Z,7.20
2022-10-27T03:39:35.119Z,6.40
2022-10-27T03:41:41.825Z,5.90
2022-10-27T03:43:48.569Z,5.40
2022-10-27T03:45:57.281Z,6.20
2022-10-27T03:48:13.792Z,6.90
2022-10-27T03:50:20.241Z,6.80
2022-10-27T03:52:28.525Z,7.10
2022-10-27T03:54:37.741Z,7.00
2022-10-27T03:56:44.272Z,8.20
2022-10-27T03:58:50.896Z,7.50
2022-10-27T04:01:03.498Z,7.80
2022-10-27T04:05:16.436Z,8.30
2022-10-27T04:07:22.731Z,8.40
2022-10-27T04:09:29.393Z,7.70
2022-10-27T04:11:35.801Z,7.10
2022-10-27T04:13:42.517Z,7.10
2022-10-27T04:15:48.982Z,6.80
2022-10-27T04:17:57.793Z,7.20
2022-10-27T04:20:04.348Z,7.50
2022-10-27T04:22:10.886Z,6.50
2022-10-27T04:24:17.381Z,7.10
2022-10-27T04:26:23.643Z,7.50
2022-10-27T04:28:29.899Z,7.50
2022-10-27T04:30:36.537Z,6.70
2022-10-27T04:32:43.424Z,8.00
2022-10-27T04:34:50.062Z,8.00
2022-10-27T04:36:57.688Z,8.50
2022-10-27T04:39:04.187Z,8.70
2022-10-27T04:41:10.547Z,7.80
2022-10-27T04:43:16.848Z,7.90
2022-10-27T04:45:23.268Z,7.40
2022-10-27T04:47:29.832Z,8.00
2022-10-27T04:49:36.661Z,7.20
2022-10-27T04:51:43.257Z,7.10
2022-10-27T04:53:49.666Z,7.10
2022-10-27T04:55:56.348Z,7.80
2022-10-27T04:58:05.532Z,7.40
2022-10-27T05:00:13.998Z,7.50
2022-10-27T05:02:21.137Z,8.80
2022-10-27T05:04:28.095Z,8.60
2022-10-27T05:06:34.791Z,7.20
2022-10-27T05:08:41.521Z,8.10
2022-10-27T05:10:48.269Z,7.60
2022-10-27T05:12:54.913Z,8.90
2022-10-27T05:15:01.694Z,6.60
2022-10-27T05:17:08.329Z,7.90
2022-10-27T05:19:14.712Z,7.30
2022-10-27T05:21:21.170Z,7.70
2022-10-27T05:23:27.815Z,7.30
2022-10-27T05:25:34.441Z,7.20
2022-10-27T05:27:40.946Z,8.00
2022-10-27T05:29:47.617Z,7.60
2022-10-27T05:31:54.428Z,7.90
2022-10-27T05:36:13.243Z,5.60
2022-10-27T05:38:20.058Z,7.90
2022-10-27T05:40:26.727Z,6.90
2022-10-27T05:42:33.425Z,6.90
2022-10-27T05:44:39.958Z,6.90
2022-10-27T05:46:46.311Z,7.00
2022-10-27T05:48:52.455Z,7.10
2022-10-27T05:50:59.072Z,6.90
2022-10-27T05:53:05.614Z,7.10
2022-10-27T05:55:11.993Z,7.00
2022-10-27T05:57:19.491Z,6.40
2022-10-27T05:59:25.634Z,6.70
2022-10-27T06:01:31.783Z,6.00
2022-10-27T06:03:38.116Z,5.80
2022-10-27T06:05:44.764Z,5.70
2022-10-27T06:07:51.831Z,5.90
2022-10-27T06:09:57.957Z,6.00
2022-10-27T06:12:04.885Z,5.50
2022-10-27T06:14:11.160Z,5.50
2022-10-27T06:16:17.742Z,5.30
2022-10-27T06:18:23.981Z,6.40
2022-10-27T06:20:30.505Z,5.60
2022-10-27T06:22:36.913Z,5.90
2022-10-27T06:24:42.859Z,5.20
2022-10-27T06:26:51.947Z,5.70
2022-10-27T06:29:00.601Z,4.90
2022-10-27T06:31:06.799Z,5.20
2022-10-27T06:33:12.792Z,5.10
2022-10-27T06:35:19.749Z,5.50
2022-10-27T06:37:25.685Z,5.50
2022-10-27T06:39:32.564Z,5.40
2022-10-27T06:41:38.749Z,4.90
2022-10-27T06:43:44.981Z,5.00
2022-10-27T06:45:51.463Z,5.40
2022-10-27T06:48:03.090Z,4.40
2022-10-27T06:50:09.608Z,4.70
2022-10-27T06:52:19.292Z,4.80
2022-10-27T06:54:25.366Z,5.20
2022-10-27T06:56:31.631Z,4.90
2022-10-27T06:58:41.258Z,4.90
2022-10-27T07:00:48.336Z,5.30
2022-10-27T07:02:55.139Z,4.90
2022-10-27T07:05:02.489Z,4.90
2022-10-27T07:07:09.785Z,4.60
2022-10-27T07:09:16.240Z,5.10
2022-10-27T07:11:23.338Z,4.90
2022-10-27T07:13:29.980Z,5.40
2022-10-27T07:15:39.260Z,4.50
2022-10-27T07:17:46.133Z,4.20
2022-10-27T07:19:52.538Z,4.50
2022-10-27T07:21:58.897Z,4.40
2022-10-27T07:24:05.087Z,5.20
2022-10-27T07:26:11.237Z,6.30
2022-10-27T07:28:19.299Z,4.20
2022-10-27T07:30:30.058Z,4.50
2022-10-27T07:32:36.481Z,4.70
2022-10-27T07:34:42.822Z,4.30
2022-10-27T07:36:49.238Z,4.10
2022-10-27T07:38:55.701Z,4.20
2022-10-27T07:41:02.218Z,5.20
2022-10-27T07:43:09.234Z,4.30
2022-10-27T07:45:17.107Z,4.10
2022-10-27T07:47:23.312Z,4.40
2022-10-27T07:49:29.777Z,4.40
2022-10-27T07:51:36.147Z,4.60
2022-10-27T07:53:42.079Z,4.70
2022-10-27T07:55:48.767Z,4.60
2022-10-27T07:58:08.942Z,4.10
2022-10-27T08:00:18.576Z,4.60
2022-10-27T08:02:24.637Z,4.90
2022-10-27T08:04:30.812Z,4.50
2022-10-27T08:06:36.699Z,4.40
2022-10-27T08:08:43.085Z,5.80
2022-10-27T08:10:51.537Z,4.20
2022-10-27T08:12:58.112Z,3.50
2022-10-27T08:15:04.690Z,4.50
2022-10-27T08:17:10.912Z,4.50
2022-10-27T08:19:18.019Z,4.60
2022-10-27T08:21:24.431Z,3.70
2022-10-27T08:23:31.096Z,3.90
2022-10-27T08:25:37.824Z,4.00
2022-10-27T08:27:43.986Z,3.70
2022-10-27T08:29:50.536Z,3.70
2022-10-27T08:31:56.515Z,3.40
2022-10-27T08:34:02.931Z,3.70
2022-10-27T08:36:09.075Z,3.50
2022-10-27T08:38:17.629Z,3.70
2022-10-27T08:40:23.989Z,3.50
2022-10-27T08:42:36.317Z,3.80
2022-10-27T08:44:51.317Z,3.80
2022-10-27T08:47:12.310Z,3.20
2022-10-27T08:49:31.266Z,3.80
2022-10-27T08:51:38.155Z,3.70
2022-10-27T08:53:47.798Z,3.50
2022-10-27T08:55:57.277Z,3.10
2022-10-27T08:58:25.428Z,3.50
2022-10-27T09:00:40.986Z,3.60
2022-10-27T09:03:08.066Z,3.10
2022-10-27T09:05:38.581Z,2.90
2022-10-27T09:08:18.447Z,2.70
2022-10-27T09:10:53.289Z,3.70
2022-10-27T09:13:26.911Z,4.10
2022-10-27T09:15:42.363Z,3.50
2022-10-27T09:18:08.284Z,3.10
2022-10-27T09:20:52.687Z,3.70
2022-10-27T09:23:08.166Z,2.70
2022-10-27T09:25:22.505Z,3.40
2022-10-27T09:27:29.127Z,3.10
2022-10-27T09:29:38.452Z,3.10
2022-10-27T09:32:08.399Z,3.10
2022-10-27T09:34:39.521Z,3.30
2022-10-27T09:36:46.169Z,2.90
2022-10-27T09:38:52.508Z,2.90
2022-10-27T09:40:59.495Z,3.10
2022-10-27T09:43:06.043Z,2.70
2022-10-27T09:45:24.246Z,3.10
2022-10-27T09:47:36.836Z,3.30
2022-10-27T09:49:49.421Z,3.20
2022-10-27T09:52:21.729Z,3.70
2022-10-27T09:54:37.818Z,3.50
2022-10-27T09:56:44.380Z,3.40
2022-10-27T09:59:03.626Z,2.70
2022-10-27T10:01:12.398Z,3.10
2022-10-27T10:03:23.430Z,2.90
2022-10-27T10:05:35.648Z,2.90
2022-10-27T10:07:44.591Z,3.20
2022-10-27T10:10:03.762Z,2.50
2022-10-27T10:12:24.586Z,2.40
2022-10-27T10:14:31.468Z,2.80
2022-10-27T10:16:37.748Z,2.50
2022-10-27T10:19:07.132Z,2.40
2022-10-27T10:21:16.195Z,2.40
2022-10-27T10:23:25.500Z,2.20
2022-10-27T10:25:48.318Z,2.40
2022-10-27T10:28:08.598Z,2.40
2022-10-27T10:30:21.363Z,2.40
2022-10-27T10:32:37.056Z,2.50
2022-10-27T10:34:46.862Z,2.50
2022-10-27T10:36:53.580Z,2.20
2022-10-27T10:39:01.313Z,2.10
2022-10-27T10:41:18.729Z,2.30
2022-10-27T10:43:25.546Z,1.80
2022-10-27T10:45:36.577Z,2.00
2022-10-27T10:47:49.951Z,2.30
2022-10-27T10:50:00.916Z,2.00
2022-10-27T10:52:17.695Z,2.40
2022-10-27T10:54:47.282Z,1.90
2022-10-27T10:56:55.304Z,1.70
2022-10-27T10:59:22.193Z,2.00
2022-10-27T11:01:42.930Z,2.10
2022-10-27T11:03:55.088Z,2.20
2022-10-27T11:08:22.699Z,1.90
2022-10-27T11:10:39.181Z,2.10
2022-10-27T11:12:50.654Z,2.00
2022-10-27T11:15:00.017Z,2.00
2022-10-27T11:17:06.629Z,2.30
2022-10-27T11:19:18.411Z,2.10
2022-10-27T11:21:57.462Z,2.50
2022-10-27T11:24:12.666Z,2.70
2022-10-27T11:26:24.282Z,2.40
2022-10-27T11:29:00.637Z,2.20
2022-10-27T11:31:13.654Z,2.20
2022-10-27T11:33:34.117Z,2.40
2022-10-27T11:36:14.907Z,2.40
2022-10-27T11:38:53.857Z,1.70
2022-10-27T11:41:16.649Z,2.10
2022-10-27T11:44:00.116Z,2.10
2022-10-27T11:46:16.141Z,2.40
2022-10-27T11:48:36.531Z,2.20
2022-10-27T11:50:56.314Z,2.00
2022-10-27T11:53:04.361Z,2.10
2022-10-27T11:55:14.141Z,2.30
2022-10-27T11:57:42.265Z,2.10
2022-10-27T12:00:04.665Z,2.20
2022-10-27T12:02:28.182Z,2.70
2022-10-27T12:04:49.459Z,2.10
2022-10-27T12:07:04.035Z,2.60
2022-10-27T12:09:16.352Z,2.40
2022-10-27T12:11:40.511Z,2.10
2022-10-27T12:14:09.852Z,2.10
2022-10-27T12:16:42.072Z,2.60
2022-10-27T12:19:04.862Z,2.40
2022-10-27T12:21:27.121Z,2.20
2022-10-27T12:23:42.470Z,2.60
2022-10-27T12:26:08.990Z,2.40
2022-10-27T12:28:16.873Z,2.80
2022-10-27T12:30:27.023Z,2.90
2022-10-27T12:32:41.430Z,2.40
2022-10-27T12:35:04.026Z,2.70
2022-10-27T12:37:26.707Z,3.00
2022-10-27T12:39:44.877Z,3.30
2022-10-27T12:41:56.219Z,2.90
2022-10-27T12:44:38.072Z,3.00
2022-10-27T12:46:47.108Z,2.60
2022-10-27T12:49:06.276Z,2.60
2022-10-27T12:51:30.678Z,3.20
2022-10-27T12:54:03.456Z,2.80
2022-10-27T12:56:29.010Z,3.10
2022-10-27T12:58:48.551Z,2.40
2022-10-27T13:01:02.383Z,2.90
2022-10-27T13:03:41.100Z,2.50
2022-10-27T13:06:12.248Z,2.40
2022-10-27T13:08:18.132Z,2.30
2022-10-27T13:10:31.157Z,1.90
2022-10-27T13:13:03.391Z,2.30
2022-10-27T13:15:36.329Z,2.40
2022-10-27T13:18:01.017Z,2.90
2022-10-27T13:20:19.445Z,1.60
2022-10-27T13:22:42.242Z,2.70
2022-10-27T13:25:20.474Z,2.20
2022-10-27T13:27:33.507Z,2.20
2022-10-27T13:30:00.075Z,2.20
2022-10-27T13:32:24.584Z,2.30
2022-10-27T13:34:31.216Z,1.40
2022-10-27T13:36:39.391Z,2.10
2022-10-27T13:38:46.011Z,2.30
2022-10-27T13:40:54.286Z,2.10
2022-10-27T13:43:25.931Z,2.10
2022-10-27T13:45:32.698Z,2.40
2022-10-27T13:47:38.859Z,2.50
2022-10-27T13:49:45.350Z,2.40
2022-10-27T13:52:17.159Z,2.80
2022-10-27T13:54:57.018Z,2.50
2022-10-27T13:57:25.844Z,2.60
2022-10-27T13:59:36.112Z,2.40
2022-10-27T14:01:52.013Z,1.90
2022-10-27T14:04:49.602Z,2.20
2022-10-27T14:09:25.881Z,2.80
2022-10-27T14:11:32.869Z,2.00
2022-10-27T14:13:49.948Z,1.90
2022-10-27T14:16:03.430Z,2.20
2022-10-27T14:18:39.267Z,1.90
2022-10-27T14:20:46.206Z,2.20
2022-10-27T14:22:56.886Z,1.90
2022-10-27T14:25:17.660Z,2.20
2022-10-27T14:27:25.435Z,2.40
2022-10-27T14:29:33.544Z,2.30
2022-10-27T14:31:42.701Z,2.00
2022-10-27T14:33:52.769Z,1.90
2022-10-27T14:36:18.382Z,2.20
2022-10-27T14:38:25.028Z,2.60
2022-10-27T14:40:40.820Z,2.00
2022-10-27T14:42:48.185Z,1.50
2022-10-27T14:45:05.388Z,1.90
2022-10-27T14:47:18.040Z,1.70
2022-10-27T14:49:34.901Z,2.10
2022-10-27T14:51:41.575Z,1.80
2022-10-27T14:53:53.775Z,1.90
2022-10-27T14:56:20.816Z,1.90
2022-10-27T14:58:27.414Z,1.80
2022-10-27T15:00:37.928Z,2.20
2022-10-27T15:02:45.172Z,1.80
2022-10-27T15:04:52.857Z,2.20
2022-10-27T15:07:03.926Z,2.10
2022-10-27T15:09:25.921Z,1.60
2022-10-27T15:11:32.575Z,2.30
2022-10-27T15:13:38.929Z,1.80
2022-10-27T15:15:47.787Z,2.40
2022-10-27T15:17:53.975Z,2.40
2022-10-27T15:20:02.946Z,2.30
2022-10-27T15:22:09.257Z,2.20
2022-10-27T15:24:20.500Z,1.60
2022-10-27T15:26:31.479Z,1.90
2022-10-27T15:28:40.133Z,2.50
2022-10-27T15:30:46.827Z,2.20
2022-10-27T15:32:54.011Z,1.80
2022-10-27T15:35:00.790Z,2.10
2022-10-27T15:37:28.580Z,1.90
2022-10-27T15:39:35.149Z,2.30
2022-10-27T15:41:52.767Z,1.90
2022-10-27T15:44:04.504Z,1.90
2022-10-27T15:46:31.528Z,1.70
2022-10-27T15:48:40.990Z,2.10
2022-10-27T15:51:06.242Z,1.60
2022-10-27T15:53:21.464Z,1.80
2022-10-27T15:55:29.035Z,1.80
2022-10-27T15:57:39.746Z,1.80
2022-10-27T16:00:14.973Z,2.20
2022-10-27T16:02:30.193Z,1.80
2022-10-27T16:04:46.086Z,2.10
2022-10-27T16:07:15.618Z,1.70
2022-10-27T16:09:46.467Z,2.40
2022-10-27T16:11:53.013Z,1.50
2022-10-27T16:14:02.549Z,1.60
2022-10-27T16:16:09.892Z,1.70
2022-10-27T16:18:20.266Z,1.40
2022-10-27T16:20:35.274Z,1.90
2022-10-27T16:22:41.323Z,2.10
2022-10-27T16:24:48.273Z,1.60
2022-10-27T16:26:56.685Z,2.30
2022-10-27T16:29:02.907Z,1.80
2022-10-27T16:31:15.304Z,2.00
2022-10-27T16:33:25.758Z,2.00
2022-10-27T16:35:33.184Z,1.30
2022-10-27T16:37:39.756Z,2.00
2022-10-27T16:39:46.275Z,2.00
2022-10-27T16:41:53.040Z,2.00
2022-10-27T16:43:59.553Z,2.10
2022-10-27T16:46:06.702Z,2.10
2022-10-27T16:48:14.724Z,3.00
2022-10-27T16:50:21.378Z,2.30
2022-10-27T16:52:28.003Z,1.50
2022-10-27T16:54:41.651Z,1.80
2022-10-27T16:56:48.517Z,2.00
2022-10-27T16:58:54.806Z,2.10
2022-10-27T17:01:08.567Z,1.60
2022-10-27T17:03:16.573Z,2.10
2022-10-27T17:05:23.301Z,1.90
2022-10-27T17:07:30.766Z,2.20
2022-10-27T17:09:37.470Z,1.70
2022-10-27T17:11:44.831Z,1.90
2022-10-27T17:13:51.073Z,1.90
2022-10-27T17:15:57.651Z,2.00
2022-10-27T17:18:03.831Z,2.00
2022-10-27T17:20:10.397Z,2.00
2022-10-27T17:22:16.747Z,2.20
2022-10-27T17:24:23.170Z,2.00
2022-10-27T17:26:29.264Z,2.60
2022-10-27T17:28:35.902Z,2.70
2022-10-27T17:30:41.888Z,2.50
2022-10-27T17:32:48.546Z,2.40
2022-10-27T17:34:54.972Z,3.60
2022-10-27T17:37:01.736Z,2.40
2022-10-27T17:39:09.030Z,2.30
2022-10-27T17:41:15.405Z,3.10
2022-10-27T17:43:22.481Z,2.90
2022-10-27T17:45:28.617Z,2.60
2022-10-27T17:47:35.524Z,2.30
2022-10-27T17:49:42.473Z,2.20
2022-10-27T17:51:48.849Z,2.00
2022-10-27T17:53:55.738Z,2.40
2022-10-27T17:56:04.740Z,1.50
2022-10-27T17:58:11.420Z,2.00
2022-10-27T18:00:18.240Z,2.00
2022-10-27T18:02:25.528Z,1.70
2022-10-27T18:04:32.040Z,1.70
2022-10-27T18:06:39.588Z,1.90
2022-10-27T18:08:46.438Z,2.00
2022-10-27T18:10:54.829Z,1.90
2022-10-27T18:13:00.941Z,1.70
2022-10-27T18:15:34.062Z,1.80
2022-10-27T18:17:34.731Z,2.10
2022-10-27T18:19:41.981Z,1.70
2022-10-27T18:21:49.482Z,2.40
2022-10-27T18:23:58.078Z,1.80
2022-10-27T18:26:06.438Z,2.20
2022-10-27T18:28:12.766Z,2.20
2022-10-27T18:30:20.174Z,2.40
2022-10-27T18:32:26.468Z,2.30
2022-10-27T18:34:32.723Z,2.50
2022-10-27T18:36:39.985Z,2.90
2022-10-27T18:38:46.784Z,2.70
2022-10-27T18:40:52.909Z,3.00
2022-10-27T18:43:01.244Z,2.70
2022-10-27T18:45:08.827Z,2.80
2022-10-27T18:47:15.689Z,2.80
2022-10-27T18:49:30.480Z,2.60
2022-10-27T18:51:48.348Z,2.80
2022-10-27T18:53:59.147Z,3.90
2022-10-27T18:56:08.390Z,3.00
2022-10-27T18:58:14.351Z,3.00
2022-10-27T19:00:20.856Z,4.60
2022-10-27T19:02:27.251Z,4.90
2022-10-27T19:04:33.837Z,5.60
2022-10-27T19:06:40.109Z,5.20
2022-10-27T19:08:46.393Z,3.90
2022-10-27T19:10:52.713Z,4.30
2022-10-27T19:12:58.766Z,5.10
2022-10-27T19:15:05.473Z,4.60
2022-10-27T19:17:11.529Z,5.10
2022-10-27T19:19:17.541Z,5.80
2022-10-27T19:21:23.653Z,6.00
2022-10-27T19:23:30.553Z,4.90
2022-10-27T19:25:36.404Z,3.90
2022-10-27T19:27:42.785Z,4.30
2022-10-27T19:29:48.862Z,4.20
2022-10-27T19:31:54.863Z,4.70
2022-10-27T19:34:01.422Z,4.70
2022-10-27T19:36:12.060Z,3.70
2022-10-27T19:38:19.114Z,4.70
2022-10-27T19:40:25.613Z,3.70
2022-10-27T19:42:32.009Z,3.70
2022-10-27T19:44:38.001Z,3.50
2022-10-27T19:46:44.531Z,3.40
2022-10-27T19:49:01.505Z,2.80
2022-10-27T19:51:19.825Z,2.50
2022-10-27T19:53:26.056Z,2.40
2022-10-27T19:55:33.935Z,2.40
2022-10-27T19:57:40.540Z,2.70
2022-10-27T19:59:46.905Z,2.30
2022-10-27T20:01:55.003Z,2.70
2022-10-27T20:04:03.273Z,1.90
2022-10-27T20:06:10.912Z,2.10
2022-10-27T20:08:17.690Z,2.50
2022-10-27T20:10:24.353Z,2.80
2022-10-27T20:12:31.449Z,2.50
2022-10-27T20:14:37.762Z,2.40
2022-10-27T20:16:45.909Z,2.70
2022-10-27T20:18:53.070Z,2.60
2022-10-27T20:20:59.470Z,1.80
2022-10-27T20:23:05.919Z,2.50
2022-10-27T20:25:12.513Z,2.30
2022-10-27T20:27:18.816Z,2.40
2022-10-27T20:29:27.204Z,2.50
2022-10-27T20:31:36.411Z,2.30
2022-10-27T20:33:42.840Z,2.50
2022-10-27T20:35:49.216Z,2.20
2022-10-27T20:37:55.598Z,2.70
2022-10-27T20:40:02.325Z,3.00
2022-10-27T20:42:08.695Z,3.00
2022-10-27T20:44:15.069Z,3.20
2022-10-27T20:46:21.789Z,3.10
2022-10-27T20:48:29.087Z,2.90
2022-10-27T20:50:35.898Z,3.00
2022-10-27T20:52:42.376Z,2.40
2022-10-27T20:54:49.334Z,3.00
2022-10-27T20:56:55.957Z,3.70
2022-10-27T20:59:02.730Z,3.30
2022-10-27T21:01:32.466Z,2.90
2022-10-27T21:03:39.222Z,3.20
2022-10-27T21:05:46.652Z,3.40
2022-10-27T21:07:53.416Z,3.30
2022-10-27T21:10:00.121Z,3.80
2022-10-27T21:12:06.890Z,4.20
2022-10-27T21:14:13.845Z,3.80
2022-10-27T21:16:20.522Z,3.50
2022-10-27T21:18:27.474Z,4.00
2022-10-27T21:20:33.993Z,3.60
2022-10-27T21:22:40.575Z,3.70
2022-10-27T21:24:46.540Z,3.90
2022-10-27T21:26:53.380Z,4.60
2022-10-27T21:29:00.504Z,4.20
2022-10-27T21:31:10.375Z,3.30
2022-10-27T21:33:16.812Z,3.10
2022-10-27T21:35:25.657Z,3.50
2022-10-27T21:37:32.321Z,2.50
2022-10-27T21:39:38.847Z,2.80
2022-10-27T21:41:45.021Z,2.20
2022-10-27T21:43:53.220Z,2.70
2022-10-27T21:45:59.984Z,2.50
2022-10-27T21:48:07.234Z,2.60
2022-10-27T21:50:13.451Z,2.00
2022-10-27T21:52:20.071Z,1.80
2022-10-27T21:54:26.965Z,1.80
2022-10-27T21:56:35.784Z,2.20
2022-10-27T21:58:42.318Z,2.30
2022-10-27T22:00:48.586Z,2.40
2022-10-27T22:02:55.095Z,2.40
2022-10-27T22:05:01.403Z,2.10
2022-10-27T22:07:07.647Z,2.30
2022-10-27T22:09:13.893Z,2.50
2022-10-27T22:11:23.285Z,2.70
2022-10-27T22:13:29.494Z,2.30
2022-10-27T22:15:36.692Z,3.10
2022-10-27T22:17:43.163Z,2.50
2022-10-27T22:19:49.459Z,2.50
2022-10-27T22:21:55.817Z,2.40
2022-10-27T22:24:02.295Z,2.50
2022-10-27T22:26:17.962Z,3.00
2022-10-27T22:28:24.222Z,2.70
2022-10-27T22:30:31.946Z,3.00
2022-10-27T22:32:38.340Z,3.50
2022-10-27T22:34:44.799Z,2.40
2022-10-27T22:36:51.400Z,2.60
2022-10-27T22:39:00.865Z,2.60
2022-10-27T22:41:09.913Z,2.30
2022-10-27T22:43:16.191Z,2.50
2022-10-27T22:45:22.288Z,2.10
2022-10-27T22:47:28.504Z,2.00
2022-10-27T22:49:34.908Z,2.60
2022-10-27T22:51:41.103Z,2.50
2022-10-27T22:53:48.597Z,3.20
2022-10-27T22:55:55.045Z,2.80
2022-10-27T22:58:01.498Z,2.60
2022-10-27T23:00:08.373Z,2.80
2022-10-27T23:02:14.588Z,3.10
2022-10-27T23:04:20.963Z,3.20
2022-10-27T23:06:29.769Z,2.80
2022-10-27T23:08:36.233Z,2.80
2022-10-27T23:10:42.470Z,3.20
2022-10-27T23:12:48.709Z,3.10
2022-10-27T23:14:55.192Z,3.00
2022-10-27T23:17:03.991Z,3.60
2022-10-27T23:19:10.399Z,4.00
2022-10-27T23:21:18.313Z,3.70
2022-10-27T23:23:25.395Z,3.60
2022-10-27T23:25:33.847Z,3.80
2022-10-27T23:27:42.604Z,3.70
2022-10-27T23:29:49.139Z,3.90
2022-10-27T23:31:55.084Z,3.40
2022-10-27T23:34:06.406Z,3.90
2022-10-27T23:36:13.168Z,3.80
2022-10-27T23:38:19.281Z,3.70
2022-10-27T23:40:25.335Z,3.70
2022-10-27T23:42:31.252Z,3.90
2022-10-27T23:44:37.525Z,3.80
2022-10-27T23:46:43.435Z,4.50
2022-10-27T23:48:49.963Z,4.70
2022-10-27T23:50:56.215Z,4.70
2022-10-27T23:53:02.551Z,3.20
2022-10-27T23:55:09.421Z,3.80
2022-10-27T23:57:15.785Z,3.60
2022-10-27T23:59:22.342Z,4.40
